createdAt,value
2022-12-10T00:01:26.318Z,-2.21
2022-12-10T00:03:53.697Z,-2.13
2022-12-10T00:06:23.053Z,-2.02
2022-12-10T00:08:49.942Z,-1.89
2022-12-10T00:11:18.640Z,-1.84
2022-12-10T00:13:46.832Z,-1.80
2022-12-10T00:16:16.078Z,-1.76
2022-12-10T00:18:44.028Z,-1.65
2022-12-10T00:21:14.038Z,-1.62
2022-12-10T00:23:41.457Z,-1.67
2022-12-10T00:26:14.338Z,-1.56
2022-12-10T00:28:43.014Z,-1.76
2022-12-10T00:31:18.534Z,-1.66
2022-12-10T00:33:46.598Z,-1.60
2022-12-10T00:36:25.476Z,-1.76
2022-12-10T00:38:53.445Z,-1.84
2022-12-10T00:41:20.219Z,-1.96
2022-12-10T00:43:47.422Z,-1.98
2022-12-10T00:46:16.096Z,-2.07
2022-12-10T00:48:43.458Z,-2.11
2022-12-10T00:51:21.815Z,-2.11
2022-12-10T00:53:50.571Z,-2.06
2022-12-10T00:56:24.962Z,-1.96
2022-12-10T00:58:52.669Z,-2.08
2022-12-10T01:01:28.348Z,-2.09
2022-12-10T01:03:57.653Z,-2.27
2022-12-10T01:06:28.118Z,-2.25
2022-12-10T01:08:57.747Z,-2.25
2022-12-10T01:11:28.911Z,-2.15
2022-12-10T01:13:55.942Z,-2.06
2022-12-10T01:16:24.000Z,-2.07
2022-12-10T01:18:54.472Z,-2.13
2022-12-10T01:21:21.785Z,-2.09
2022-12-10T01:23:50.992Z,-2.19
2022-12-10T01:26:20.645Z,-2.29
2022-12-10T01:28:48.162Z,-2.34
2022-12-10T01:31:17.161Z,-2.59
2022-12-10T01:33:43.958Z,-2.66
2022-12-10T01:36:17.659Z,-2.62
2022-12-10T01:38:44.728Z,-2.51
2022-12-10T01:41:16.986Z,-2.44
2022-12-10T01:43:55.848Z,-2.26
2022-12-10T01:46:25.255Z,-2.23
2022-12-10T01:48:52.227Z,-2.32
2022-12-10T01:51:20.313Z,-2.36
2022-12-10T01:53:48.485Z,-2.41
2022-12-10T01:56:17.789Z,-2.59
2022-12-10T01:58:45.552Z,-2.39
2022-12-10T02:01:17.905Z,-2.43
2022-12-10T02:03:50.553Z,-2.37
2022-12-10T02:06:17.188Z,-2.24
2022-12-10T02:09:12.082Z,-2.13
2022-12-10T02:11:45.378Z,-2.20
2022-12-10T02:14:26.370Z,-2.11
2022-12-10T02:17:00.743Z,-2.16
2022-12-10T02:19:57.806Z,-2.17
2022-12-10T02:22:27.897Z,-2.23
2022-12-10T02:24:56.834Z,-2.17
2022-12-10T02:27:40.207Z,-2.10
2022-12-10T02:30:09.316Z,-2.28
2022-12-10T02:35:51.748Z,-1.96
2022-12-10T02:38:24.756Z,-2.19
2022-12-10T02:40:55.714Z,-2.74
2022-12-10T02:43:24.663Z,-2.74
2022-12-10T02:45:52.103Z,-2.76
2022-12-10T02:48:20.382Z,-2.62
2022-12-10T02:50:47.481Z,-2.28
2022-12-10T02:53:14.379Z,-3.09
2022-12-10T02:56:10.209Z,-2.84
2022-12-10T02:59:13.250Z,-2.54
2022-12-10T03:01:55.749Z,-2.32
2022-12-10T03:04:40.426Z,-2.58
2022-12-10T03:07:17.828Z,-2.44
2022-12-10T03:09:52.546Z,-2.79
2022-12-10T03:12:36.962Z,-2.46
2022-12-10T03:15:08.396Z,-2.34
2022-12-10T03:17:37.306Z,-2.59
2022-12-10T03:20:05.330Z,-2.60
2022-12-10T03:22:33.644Z,-2.40
2022-12-10T03:25:01.899Z,-2.81
2022-12-10T03:27:30.651Z,-2.41
2022-12-10T03:29:59.678Z,-3.16
2022-12-10T03:32:29.286Z,-2.43
2022-12-10T03:34:59.463Z,-2.90
2022-12-10T03:37:28.236Z,-2.61
2022-12-10T03:39:56.574Z,-2.78
2022-12-10T03:42:23.363Z,-3.68
2022-12-10T03:44:53.388Z,-3.01
2022-12-10T03:47:20.870Z,-3.02
2022-12-10T03:49:48.474Z,-2.68
2022-12-10T03:52:15.391Z,-2.82
2022-12-10T03:54:42.267Z,-3.15
2022-12-10T03:57:09.011Z,-2.86
2022-12-10T03:59:35.585Z,-2.97
2022-12-10T04:02:02.667Z,-3.09
2022-12-10T04:04:29.396Z,-2.98
2022-12-10T04:06:56.209Z,-3.11
2022-12-10T04:09:22.914Z,-3.13
2022-12-10T04:11:49.550Z,-2.93
2022-12-10T04:14:16.294Z,-3.20
2022-12-10T04:16:43.107Z,-2.96
2022-12-10T04:19:15.603Z,-2.61
2022-12-10T04:21:44.173Z,-2.70
2022-12-10T04:24:12.037Z,-2.75
2022-12-10T04:26:38.794Z,-2.51
2022-12-10T04:29:07.594Z,-3.17
2022-12-10T04:31:34.281Z,-3.07
2022-12-10T04:34:00.878Z,-3.04
2022-12-10T04:36:27.616Z,-2.71
2022-12-10T04:38:54.226Z,-2.91
2022-12-10T04:41:21.031Z,-2.86
2022-12-10T04:43:47.769Z,-2.89
2022-12-10T04:46:14.623Z,-3.08
2022-12-10T04:48:41.230Z,-2.91
2022-12-10T04:51:07.976Z,-2.70
2022-12-10T04:53:34.616Z,-2.65
2022-12-10T04:56:01.221Z,-2.76
2022-12-10T04:58:28.252Z,-2.99
2022-12-10T05:00:54.920Z,-3.03
2022-12-10T05:03:23.373Z,-2.97
2022-12-10T05:05:50.040Z,-3.18
2022-12-10T05:08:16.645Z,-3.38
2022-12-10T05:10:43.530Z,-3.43
2022-12-10T05:13:10.162Z,-3.07
2022-12-10T05:15:39.517Z,-2.59
2022-12-10T05:18:06.233Z,-3.20
2022-12-10T05:20:33.025Z,-3.03
2022-12-10T05:22:59.595Z,-2.77
2022-12-10T05:25:26.296Z,-3.01
2022-12-10T05:27:53.152Z,-2.75
2022-12-10T05:30:19.905Z,-2.38
2022-12-10T05:32:46.465Z,-2.64
2022-12-10T05:35:13.149Z,-2.57
2022-12-10T05:37:39.735Z,-2.82
2022-12-10T05:40:07.500Z,-3.14
2022-12-10T05:42:34.481Z,-3.27
2022-12-10T05:45:01.201Z,-2.92
2022-12-10T05:47:27.753Z,-2.98
2022-12-10T05:49:54.537Z,-2.99
2022-12-10T05:52:22.557Z,-2.80
2022-12-10T05:54:49.173Z,-2.93
2022-12-10T05:57:15.748Z,-2.85
2022-12-10T05:59:43.203Z,-3.13
2022-12-10T06:02:09.765Z,-3.30
2022-12-10T06:04:36.618Z,-3.17
2022-12-10T06:07:07.977Z,-2.97
2022-12-10T06:09:37.871Z,-2.60
2022-12-10T06:12:04.678Z,-2.77
2022-12-10T06:14:31.560Z,-2.70
2022-12-10T06:16:58.216Z,-3.07
2022-12-10T06:19:24.866Z,-3.24
2022-12-10T06:21:51.441Z,-3.79
2022-12-10T06:24:18.194Z,-3.19
2022-12-10T06:26:44.824Z,-2.89
2022-12-10T06:29:11.548Z,-3.25
2022-12-10T06:31:38.233Z,-3.04
2022-12-10T06:34:04.884Z,-3.11
2022-12-10T06:36:31.796Z,-2.66
2022-12-10T06:38:58.589Z,-2.94
2022-12-10T06:41:25.198Z,-2.93
2022-12-10T06:43:51.951Z,-3.23
2022-12-10T06:46:21.446Z,-2.79
2022-12-10T06:48:48.429Z,-3.10
2022-12-10T06:51:15.186Z,-3.22
2022-12-10T06:53:42.633Z,-2.94
2022-12-10T06:56:13.775Z,-2.92
2022-12-10T06:58:40.668Z,-3.90
2022-12-10T07:01:10.822Z,-3.27
2022-12-10T07:03:38.280Z,-3.40
2022-12-10T07:06:06.264Z,-3.52
2022-12-10T07:08:33.435Z,-3.17
2022-12-10T07:11:05.257Z,-4.19
2022-12-10T07:13:32.089Z,-3.50
2022-12-10T07:15:59.757Z,-3.23
2022-12-10T07:18:27.850Z,-3.22
2022-12-10T07:20:54.679Z,-4.55
2022-12-10T07:23:22.424Z,-2.62
2022-12-10T07:25:48.989Z,-3.06
2022-12-10T07:28:15.811Z,-3.24
2022-12-10T07:30:42.880Z,-2.98
2022-12-10T07:33:09.543Z,-3.46
2022-12-10T07:35:40.644Z,-3.01
2022-12-10T07:38:09.051Z,-3.44
2022-12-10T07:40:35.612Z,-3.37
2022-12-10T07:43:02.254Z,-3.56
2022-12-10T07:45:29.063Z,-2.99
2022-12-10T07:47:55.734Z,-3.31
2022-12-10T07:50:22.357Z,-3.04
2022-12-10T07:52:49.016Z,-3.22
2022-12-10T07:55:16.733Z,-3.18
2022-12-10T07:57:44.222Z,-3.73
2022-12-10T08:00:13.548Z,-3.22
2022-12-10T08:02:40.745Z,-3.55
2022-12-10T08:05:07.674Z,-3.90
2022-12-10T08:07:34.861Z,-3.57
2022-12-10T08:10:01.819Z,-3.76
2022-12-10T08:12:28.470Z,-3.83
2022-12-10T08:14:55.097Z,-3.49
2022-12-10T08:17:21.859Z,-3.74
2022-12-10T08:19:48.505Z,-3.40
2022-12-10T08:22:15.419Z,-3.52
2022-12-10T08:24:42.093Z,-4.17
2022-12-10T08:27:08.862Z,-3.82
2022-12-10T08:29:35.591Z,-3.68
2022-12-10T08:32:02.260Z,-3.70
2022-12-10T08:34:30.111Z,-3.49
2022-12-10T08:36:56.993Z,-3.49
2022-12-10T08:39:23.587Z,-4.03
2022-12-10T08:41:50.275Z,-3.57
2022-12-10T08:44:19.705Z,-3.86
2022-12-10T08:46:46.379Z,-3.73
2022-12-10T08:49:15.105Z,-3.68
2022-12-10T08:51:42.179Z,-3.82
2022-12-10T08:54:08.936Z,-3.66
2022-12-10T08:56:35.787Z,-3.75
2022-12-10T08:59:06.457Z,-4.02
2022-12-10T09:01:34.454Z,-3.57
2022-12-10T09:04:01.110Z,-3.22
2022-12-10T09:06:28.894Z,-3.04
2022-12-10T09:08:57.348Z,-3.05
2022-12-10T09:11:28.383Z,-2.68
2022-12-10T09:13:55.719Z,-3.47
2022-12-10T09:16:30.913Z,-3.32
2022-12-10T09:18:58.532Z,-2.82
2022-12-10T09:21:25.558Z,-3.97
2022-12-10T09:23:52.962Z,-3.51
2022-12-10T09:26:21.126Z,-3.55
2022-12-10T09:28:52.565Z,-3.56
2022-12-10T09:31:20.957Z,-3.19
2022-12-10T09:33:50.675Z,-3.61
2022-12-10T09:36:26.393Z,-7.76
2022-12-10T09:39:00.204Z,-5.02
2022-12-10T09:41:32.752Z,-3.26
2022-12-10T09:44:19.864Z,-2.74
2022-12-10T09:46:58.828Z,-2.72
2022-12-10T09:49:31.405Z,-2.80
2022-12-10T09:52:11.384Z,-3.23
2022-12-10T09:54:44.309Z,-2.93
2022-12-10T10:00:30.970Z,-2.36
2022-12-10T10:03:01.667Z,-2.74
2022-12-10T10:05:32.229Z,-3.13
2022-12-10T10:08:03.350Z,-2.56
2022-12-10T10:10:35.078Z,-2.49
2022-12-10T10:13:07.902Z,-2.47
2022-12-10T10:15:37.523Z,-3.59
2022-12-10T10:18:18.691Z,-3.05
2022-12-10T10:20:46.410Z,-3.14
2022-12-10T10:23:16.015Z,-3.26
2022-12-10T10:25:43.517Z,-2.79
2022-12-10T10:28:19.776Z,-2.93
2022-12-10T10:30:46.684Z,-3.27
2022-12-10T10:33:15.418Z,-3.14
2022-12-10T10:35:57.219Z,-2.93
2022-12-10T10:38:28.105Z,-2.81
2022-12-10T10:41:00.442Z,-2.80
2022-12-10T10:43:40.177Z,-3.15
2022-12-10T10:46:22.185Z,-2.95
2022-12-10T10:48:50.702Z,-3.18
2022-12-10T10:51:21.865Z,-2.81
2022-12-10T10:53:53.445Z,-3.33
2022-12-10T10:56:31.934Z,-2.99
2022-12-10T10:58:58.862Z,-2.97
2022-12-10T11:01:43.691Z,-2.93
2022-12-10T11:04:11.089Z,-2.96
2022-12-10T11:06:37.916Z,-3.27
2022-12-10T11:09:06.020Z,-2.86
2022-12-10T11:11:41.048Z,-2.47
2022-12-10T11:14:35.235Z,-2.60
2022-12-10T11:17:19.674Z,-2.32
2022-12-10T11:20:01.949Z,-2.46
2022-12-10T11:22:31.496Z,-2.57
2022-12-10T11:24:58.837Z,-2.60
2022-12-10T11:27:58.191Z,-2.10
2022-12-10T11:30:27.169Z,-2.02
2022-12-10T13:24:10.305Z,-2.65
2022-12-10T13:27:01.979Z,-2.26
2022-12-10T13:29:28.746Z,-2.73
2022-12-10T13:32:20.171Z,-2.26
2022-12-10T13:34:48.275Z,-2.58
2022-12-10T13:37:19.080Z,-2.40
2022-12-10T13:40:02.894Z,-2.09
2022-12-10T13:42:33.054Z,-2.32
2022-12-10T13:45:23.931Z,-2.19
2022-12-10T13:47:56.044Z,-1.95
2022-12-10T13:50:25.592Z,-1.92
2022-12-10T13:53:07.485Z,-1.88
2022-12-10T13:55:46.362Z,-2.10
2022-12-10T13:58:37.594Z,-2.08
2022-12-10T14:01:21.457Z,-3.10
2022-12-10T14:03:48.078Z,-2.60
2022-12-10T14:06:23.401Z,-3.08
2022-12-10T14:08:56.044Z,-2.87
2022-12-10T14:11:30.146Z,-3.01
2022-12-10T14:14:01.550Z,-3.15
2022-12-10T14:16:32.732Z,-2.92
2022-12-10T14:19:04.489Z,-3.26
2022-12-10T14:21:36.512Z,-4.02
2022-12-10T14:24:04.113Z,-3.16
2022-12-10T14:26:36.054Z,-3.31
2022-12-10T14:29:08.883Z,-2.71
2022-12-10T14:31:40.744Z,-3.00
2022-12-10T14:34:09.661Z,-2.82
2022-12-10T14:36:45.941Z,-2.97
2022-12-10T14:39:19.325Z,-2.64
2022-12-10T14:41:49.697Z,-2.33
2022-12-10T14:44:18.312Z,-3.11
2022-12-10T14:46:47.814Z,-3.01
2022-12-10T14:49:24.936Z,-2.71
2022-12-10T14:51:51.724Z,-2.93
2022-12-10T14:54:26.234Z,-2.74
2022-12-10T14:56:55.475Z,-2.84
2022-12-10T14:59:47.000Z,-2.53
2022-12-10T15:02:25.530Z,-2.45
2022-12-10T15:04:53.451Z,-2.21
2022-12-10T15:07:25.019Z,-2.66
2022-12-10T15:09:53.811Z,-2.17
2022-12-10T15:12:33.429Z,-2.42
2022-12-10T15:15:07.779Z,-2.20
2022-12-10T15:18:00.959Z,-2.42
2022-12-10T15:20:48.965Z,-2.16
2022-12-10T15:23:15.666Z,-2.04
2022-12-10T15:25:47.643Z,-2.88
2022-12-10T15:28:26.668Z,-2.19
2022-12-10T15:30:57.277Z,-2.52
2022-12-10T15:33:39.994Z,-2.66
2022-12-10T15:36:07.260Z,-2.42
2022-12-10T15:38:34.247Z,-2.51
2022-12-10T15:41:22.373Z,-2.18
2022-12-10T15:43:59.638Z,-2.58
2022-12-10T15:46:26.497Z,-2.64
2022-12-10T15:48:53.074Z,-2.76
2022-12-10T15:51:19.973Z,-2.41
2022-12-10T15:53:47.445Z,-2.68
2022-12-10T15:56:14.202Z,-2.36
2022-12-10T15:58:42.161Z,-2.68
2022-12-10T16:01:14.080Z,-2.70
2022-12-10T16:03:41.118Z,-3.73
2022-12-10T16:06:08.320Z,-2.82
2022-12-10T16:08:35.593Z,-2.78
2022-12-10T16:11:15.078Z,-3.31
2022-12-10T16:13:49.653Z,-3.38
2022-12-10T16:16:16.392Z,-3.66
2022-12-10T16:18:43.115Z,-3.33
2022-12-10T16:21:09.953Z,-3.10
2022-12-10T16:23:36.931Z,-2.66
2022-12-10T16:26:14.026Z,-3.29
2022-12-10T16:28:40.885Z,-2.72
2022-12-10T16:31:11.821Z,-2.95
2022-12-10T16:33:38.641Z,-3.19
2022-12-10T16:36:06.002Z,-3.25
2022-12-10T16:38:32.908Z,-3.10
2022-12-10T16:41:00.551Z,-2.77
2022-12-10T16:43:31.289Z,-3.33
2022-12-10T16:45:58.184Z,-2.46
2022-12-10T16:48:25.355Z,-2.71
2022-12-10T16:50:53.699Z,-2.85
2022-12-10T16:53:30.687Z,-2.96
2022-12-10T16:55:57.698Z,-4.59
2022-12-10T16:58:25.615Z,-3.51
2022-12-10T17:00:55.003Z,-2.42
2022-12-10T17:03:26.080Z,-2.64
2022-12-10T17:05:56.048Z,-2.84
2022-12-10T17:08:24.038Z,-3.13
2022-12-10T17:10:52.434Z,-2.70
2022-12-10T17:13:23.244Z,-2.95
2022-12-10T17:15:51.077Z,-3.15
2022-12-10T17:18:18.633Z,-2.62
2022-12-10T17:20:47.296Z,-2.52
2022-12-10T17:23:14.243Z,-3.63
2022-12-10T17:25:41.536Z,-2.57
2022-12-10T17:28:17.544Z,-3.54
2022-12-10T17:30:53.362Z,-3.25
2022-12-10T17:33:25.219Z,-2.98
2022-12-10T17:35:59.056Z,-3.81
2022-12-10T17:38:26.600Z,-3.99
2022-12-10T17:40:55.627Z,-3.77
2022-12-10T17:43:22.498Z,-3.05
2022-12-10T17:45:49.625Z,-3.93
2022-12-10T17:48:22.931Z,-2.58
2022-12-10T17:50:49.868Z,-2.43
2022-12-10T17:53:16.816Z,-3.34
2022-12-10T17:55:50.095Z,-2.59
2022-12-10T17:58:18.217Z,-2.75
2022-12-10T18:00:55.301Z,-2.90
2022-12-10T18:03:22.172Z,-2.56
2022-12-10T18:05:52.483Z,-2.43
2022-12-10T18:08:25.737Z,-3.73
2022-12-10T18:10:55.613Z,-3.03
2022-12-10T18:13:24.609Z,-5.00
2022-12-10T18:15:51.297Z,-4.54
2022-12-10T18:18:19.201Z,-2.07
2022-12-10T18:20:47.410Z,-2.07
2022-12-10T18:23:16.679Z,-2.12
2022-12-10T18:25:48.051Z,-2.26
2022-12-10T18:28:23.895Z,-2.17
2022-12-10T18:30:50.648Z,-2.54
2022-12-10T18:33:17.472Z,-2.53
2022-12-10T18:35:44.864Z,-2.71
2022-12-10T18:38:14.616Z,-2.33
2022-12-10T18:40:41.381Z,-2.84
2022-12-10T18:43:08.016Z,-2.77
2022-12-10T18:45:35.214Z,-2.25
2022-12-10T18:48:01.796Z,-2.54
2022-12-10T18:50:30.355Z,-2.53
2022-12-10T18:52:57.340Z,-2.49
2022-12-10T18:55:25.381Z,-2.76
2022-12-10T18:58:01.185Z,-2.60
2022-12-10T19:00:34.085Z,-2.71
2022-12-10T19:03:02.973Z,-2.58
2022-12-10T19:05:34.113Z,-2.33
2022-12-10T19:08:01.291Z,-2.66
2022-12-10T19:10:27.984Z,-2.48
2022-12-10T19:12:54.746Z,-1.82
2022-12-10T19:15:22.115Z,-2.03
2022-12-10T19:17:50.150Z,-1.98
2022-12-10T19:20:23.084Z,-1.85
2022-12-10T19:22:53.033Z,-4.97
2022-12-10T19:25:19.843Z,-2.01
2022-12-10T19:27:46.843Z,-2.75
2022-12-10T19:30:19.881Z,-3.52
2022-12-10T19:32:46.636Z,-2.52
2022-12-10T19:35:16.698Z,-1.97
2022-12-10T19:37:44.601Z,-2.04
2022-12-10T19:40:25.547Z,-2.34
2022-12-10T19:42:52.352Z,-2.31
2022-12-10T19:45:20.840Z,-2.32
2022-12-10T19:47:52.325Z,-2.45
2022-12-10T19:50:22.700Z,-1.91
2022-12-10T19:52:50.784Z,-2.35
2022-12-10T19:55:20.904Z,-2.43
2022-12-10T19:57:47.921Z,-2.28
2022-12-10T20:00:26.648Z,-1.94
2022-12-10T20:02:53.344Z,-2.41
2022-12-10T20:05:20.760Z,-2.58
2022-12-10T20:07:49.106Z,-2.68
2022-12-10T20:10:30.029Z,-1.93
2022-12-10T20:12:57.077Z,-2.37
2022-12-10T20:15:25.346Z,-2.50
2022-12-10T20:17:52.755Z,-2.64
2022-12-10T20:20:29.500Z,-2.42
2022-12-10T20:22:56.253Z,-2.36
2022-12-10T20:25:23.180Z,-1.85
2022-12-10T20:27:51.446Z,-2.22
2022-12-10T20:30:29.379Z,-2.53
2022-12-10T20:32:57.538Z,-1.97
2022-12-10T20:35:26.025Z,-2.40
2022-12-10T20:37:52.807Z,-1.91
2022-12-10T20:40:32.085Z,-2.17
2022-12-10T20:42:59.660Z,-2.12
2022-12-10T20:45:26.475Z,-2.50
2022-12-10T20:47:53.224Z,-1.95
2022-12-10T20:50:20.088Z,-1.82
2022-12-10T20:52:47.196Z,-2.27
2022-12-10T20:55:14.745Z,-2.73
2022-12-10T20:57:41.645Z,-2.56
2022-12-10T21:00:16.624Z,-2.08
2022-12-10T21:02:44.293Z,-2.19
2022-12-10T21:05:12.223Z,-2.26
2022-12-10T21:07:39.250Z,-2.40
2022-12-10T21:10:06.647Z,-2.07
2022-12-10T21:12:33.345Z,-2.23
2022-12-10T21:15:05.753Z,-2.47
2022-12-10T21:17:35.668Z,-1.77
2022-12-10T21:20:02.296Z,-2.07
2022-12-10T21:22:28.959Z,-2.38
2022-12-10T21:24:55.608Z,-1.89
2022-12-10T21:27:23.127Z,-2.03
2022-12-10T21:29:49.761Z,-2.07
2022-12-10T21:32:16.438Z,-2.06
2022-12-10T21:34:43.188Z,-2.09
2022-12-10T21:37:10.657Z,-1.78
2022-12-10T21:39:38.931Z,-2.16
2022-12-10T21:42:05.661Z,-2.05
2022-12-10T21:44:32.965Z,-2.02
2022-12-10T21:46:59.816Z,-2.10
2022-12-10T21:49:26.896Z,-2.10
2022-12-10T21:51:54.164Z,-1.72
2022-12-10T21:54:20.794Z,-1.88
2022-12-10T21:56:47.482Z,-2.77
2022-12-10T21:59:14.159Z,-2.02
2022-12-10T22:01:40.842Z,-2.00
2022-12-10T22:04:07.507Z,-2.06
2022-12-10T22:06:34.218Z,-2.28
2022-12-10T22:09:00.795Z,-1.91
2022-12-10T22:11:27.537Z,-2.03
2022-12-10T22:13:55.286Z,-1.80
2022-12-10T22:16:22.679Z,-2.12
2022-12-10T22:18:50.533Z,-1.96
2022-12-10T22:21:17.439Z,-2.38
2022-12-10T22:23:44.060Z,-2.14
2022-12-10T22:26:10.988Z,-2.43
2022-12-10T22:28:37.616Z,-2.31
2022-12-10T22:31:09.051Z,-1.94
2022-12-10T22:33:37.514Z,-2.05
2022-12-10T22:36:06.465Z,-2.13
2022-12-10T22:38:34.291Z,-2.32
2022-12-10T22:41:06.027Z,-2.26
2022-12-10T22:43:50.856Z,-2.30
2022-12-10T22:46:21.112Z,-2.62
2022-12-10T22:48:49.107Z,-2.85
2022-12-10T22:51:16.579Z,-3.06
2022-12-10T22:53:46.097Z,-3.25
2022-12-10T22:56:14.636Z,-3.53
2022-12-10T22:58:42.932Z,-3.40
2022-12-10T23:01:19.646Z,-3.27
2022-12-10T23:03:47.437Z,-3.48
2022-12-10T23:06:14.238Z,-3.08
2022-12-10T23:08:41.567Z,-2.88
2022-12-10T23:11:09.836Z,-3.42
2022-12-10T23:13:38.531Z,-3.06
2022-12-10T23:16:12.034Z,-3.10
2022-12-10T23:18:40.020Z,-3.41
2022-12-10T23:21:25.490Z,-3.30
2022-12-10T23:23:54.663Z,-3.29
2022-12-10T23:26:22.570Z,-3.13
2022-12-10T23:28:49.527Z,-3.25
2022-12-10T23:31:16.710Z,-3.33
2022-12-10T23:33:43.986Z,-3.46
2022-12-10T23:36:12.682Z,-3.32
2022-12-10T23:38:39.778Z,-3.30
2022-12-10T23:41:08.735Z,-3.64
2022-12-10T23:43:36.975Z,-3.26
2022-12-10T23:46:04.676Z,-3.16
2022-12-10T23:48:32.072Z,-3.53
2022-12-10T23:51:02.903Z,-3.32
2022-12-10T23:53:30.928Z,-3.31
2022-12-10T23:55:58.180Z,-3.30
2022-12-10T23:58:25.509Z,-3.44
